createdAt,value
2018-07-02T00:00:08.331Z,14.24
2018-07-02T00:02:36.791Z,14.27
2018-07-02T00:05:05.835Z,14.38
2018-07-02T00:07:34.333Z,14.29
2018-07-02T00:10:03.039Z,14.13
2018-07-02T00:12:31.523Z,14.03
2018-07-02T00:14:59.937Z,14.20
2018-07-02T00:17:28.414Z,14.10
2018-07-02T00:19:56.858Z,14.09
2018-07-02T00:22:25.267Z,14.02
2018-07-02T00:24:53.708Z,13.98
2018-07-02T00:27:22.171Z,13.96
2018-07-02T00:29:50.628Z,14.04
2018-07-02T00:32:19.059Z,13.96
2018-07-02T00:34:47.521Z,13.97
2018-07-02T00:37:15.972Z,14.07
2018-07-02T00:39:44.439Z,14.44
2018-07-02T00:42:12.891Z,14.06
2018-07-02T00:44:41.334Z,14.04
2018-07-02T00:47:09.799Z,14.07
2018-07-02T00:49:38.257Z,14.02
2018-07-02T00:52:06.710Z,13.89
2018-07-02T00:54:35.195Z,14.08
2018-07-02T00:57:03.631Z,13.97
2018-07-02T00:59:32.254Z,13.93
2018-07-02T01:02:01.065Z,13.95
2018-07-02T01:04:29.667Z,13.96
2018-07-02T01:06:58.139Z,13.85
2018-07-02T01:09:26.732Z,13.89
2018-07-02T01:11:55.182Z,13.84
2018-07-02T01:14:23.677Z,13.93
2018-07-02T01:16:52.127Z,14.14
2018-07-02T01:19:20.568Z,14.04
2018-07-02T01:21:48.987Z,14.00
2018-07-02T01:24:17.395Z,13.97
2018-07-02T01:26:45.835Z,13.88
2018-07-02T01:29:14.269Z,13.80
2018-07-02T01:31:42.702Z,13.87
2018-07-02T01:34:11.157Z,13.79
2018-07-02T01:36:39.820Z,13.77
2018-07-02T01:39:10.125Z,14.04
2018-07-02T01:41:38.572Z,13.71
2018-07-02T01:44:07.000Z,13.69
2018-07-02T01:46:35.480Z,13.66
2018-07-02T01:49:04.099Z,13.57
2018-07-02T01:51:32.571Z,13.58
2018-07-02T01:54:01.067Z,13.64
2018-07-02T01:56:29.867Z,13.63
2018-07-02T01:58:58.348Z,13.63
2018-07-02T02:01:26.768Z,13.55
2018-07-02T02:03:55.182Z,13.48
2018-07-02T02:06:23.614Z,13.49
2018-07-02T02:08:52.091Z,13.49
2018-07-02T02:11:20.752Z,13.43
2018-07-02T02:13:49.182Z,13.28
2018-07-02T02:16:17.674Z,13.20
2018-07-02T02:18:46.121Z,13.17
2018-07-02T02:21:14.552Z,12.99
2018-07-02T02:23:43.091Z,12.85
2018-07-02T02:26:11.525Z,12.78
2018-07-02T02:28:39.976Z,12.63
2018-07-02T02:31:08.534Z,12.51
2018-07-02T02:33:36.985Z,12.44
2018-07-02T02:36:05.608Z,12.41
2018-07-02T02:38:34.054Z,12.38
2018-07-02T02:41:02.902Z,12.37
2018-07-02T02:43:31.412Z,12.20
2018-07-02T02:45:59.804Z,12.25
2018-07-02T02:48:28.448Z,12.26
2018-07-02T02:50:56.867Z,11.93
2018-07-02T02:53:25.309Z,11.88
2018-07-02T02:55:53.791Z,11.83
2018-07-02T02:58:22.232Z,11.99
2018-07-02T03:00:50.707Z,13.71
2018-07-02T03:03:19.168Z,13.76
2018-07-02T03:05:47.613Z,13.01
2018-07-02T03:08:16.063Z,14.34
2018-07-02T03:10:44.521Z,14.67
2018-07-02T03:19:57.190Z,14.75
2018-07-02T03:22:25.656Z,13.86
2018-07-02T03:24:54.089Z,14.08
2018-07-02T03:27:22.525Z,13.64
2018-07-02T03:29:50.948Z,13.60
2018-07-02T03:32:19.422Z,13.77
2018-07-02T03:34:47.927Z,12.96
2018-07-02T03:37:16.403Z,13.46
2018-07-02T03:39:44.845Z,13.80
2018-07-02T03:42:13.757Z,13.94
2018-07-02T03:44:42.212Z,13.24
2018-07-02T03:47:10.697Z,12.84
2018-07-02T03:49:39.565Z,12.64
2018-07-02T03:52:08.036Z,13.27
2018-07-02T03:54:36.520Z,13.04
2018-07-02T03:57:04.973Z,12.30
2018-07-02T03:59:33.424Z,12.44
2018-07-02T04:02:01.876Z,12.52
2018-07-02T04:04:30.484Z,12.31
2018-07-02T04:06:58.928Z,12.40
2018-07-02T04:09:27.384Z,12.41
2018-07-02T04:11:55.867Z,12.49
2018-07-02T04:14:24.274Z,12.65
2018-07-02T04:16:52.738Z,12.74
2018-07-02T04:19:21.179Z,12.47
2018-07-02T04:21:49.606Z,12.47
2018-07-02T04:24:18.071Z,12.65
2018-07-02T04:26:46.540Z,12.70
2018-07-02T04:29:15.025Z,12.85
2018-07-02T04:31:43.426Z,13.01
2018-07-02T04:34:11.900Z,12.90
2018-07-02T04:36:40.322Z,13.03
2018-07-02T04:39:09.499Z,12.95
2018-07-02T04:41:38.263Z,12.92
2018-07-02T04:44:07.543Z,13.05
2018-07-02T04:46:36.032Z,13.13
2018-07-02T04:49:04.695Z,13.09
2018-07-02T04:51:33.135Z,13.06
2018-07-02T04:54:01.564Z,13.24
2018-07-02T04:56:30.977Z,13.20
2018-07-02T04:58:59.757Z,13.40
2018-07-02T05:01:28.463Z,13.45
2018-07-02T05:03:56.862Z,13.51
2018-07-02T05:06:25.295Z,13.44
2018-07-02T05:08:53.913Z,13.61
2018-07-02T05:11:22.351Z,13.55
2018-07-02T05:13:50.744Z,13.54
2018-07-02T05:16:19.189Z,13.69
2018-07-02T05:18:47.610Z,13.87
2018-07-02T05:21:16.007Z,13.92
2018-07-02T05:23:44.758Z,14.12
2018-07-02T05:26:13.167Z,14.06
2018-07-02T05:28:41.892Z,14.09
2018-07-02T05:31:10.316Z,14.17
2018-07-02T05:33:38.742Z,14.00
2018-07-02T05:36:07.223Z,14.25
2018-07-02T05:38:35.676Z,14.47
2018-07-02T05:41:04.175Z,14.99
2018-07-02T05:43:32.602Z,14.64
2018-07-02T05:46:01.040Z,14.72
2018-07-02T05:48:29.682Z,14.80
2018-07-02T05:50:58.078Z,14.91
2018-07-02T05:53:26.899Z,14.91
2018-07-02T05:55:55.375Z,15.12
2018-07-02T05:58:24.027Z,15.22
2018-07-02T06:00:52.460Z,15.31
2018-07-02T06:03:20.924Z,15.43
2018-07-02T06:05:49.569Z,15.35
2018-07-02T06:08:17.796Z,15.21
2018-07-02T06:10:46.420Z,15.42
2018-07-02T06:13:15.044Z,15.72
2018-07-02T06:15:43.445Z,15.80
2018-07-02T06:18:11.864Z,16.05
2018-07-02T06:20:40.307Z,16.18
2018-07-02T06:23:08.728Z,16.22
2018-07-02T06:25:37.170Z,16.21
2018-07-02T06:28:05.597Z,16.48
2018-07-02T06:30:34.077Z,16.64
2018-07-02T06:33:02.527Z,16.67
2018-07-02T06:35:30.984Z,16.67
2018-07-02T06:37:59.367Z,16.90
2018-07-02T06:40:27.802Z,16.96
2018-07-02T06:42:56.210Z,17.16
2018-07-02T06:45:24.635Z,17.21
2018-07-02T06:47:53.095Z,17.21
2018-07-02T06:50:21.512Z,17.44
2018-07-02T06:52:49.963Z,17.53
2018-07-02T06:55:18.382Z,17.57
2018-07-02T06:57:47.025Z,17.43
2018-07-02T07:00:15.428Z,17.58
2018-07-02T07:02:43.827Z,18.01
2018-07-02T07:05:12.249Z,18.11
2018-07-02T07:14:24.922Z,18.46
2018-07-02T07:16:53.356Z,18.63
2018-07-02T07:19:21.776Z,18.71
2018-07-02T07:21:50.192Z,18.94
2018-07-02T07:24:18.631Z,19.16
2018-07-02T07:26:47.031Z,18.87
2018-07-02T07:29:15.481Z,19.02
2018-07-02T07:31:43.928Z,19.20
2018-07-02T07:34:12.308Z,19.12
2018-07-02T07:36:40.730Z,19.03
2018-07-02T07:39:10.725Z,19.26
2018-07-02T07:41:39.256Z,19.37
2018-07-02T07:44:07.847Z,19.54
2018-07-02T07:46:36.315Z,19.21
2018-07-02T07:49:05.194Z,19.41
2018-07-02T07:51:33.922Z,19.45
2018-07-02T07:54:02.386Z,19.57
2018-07-02T07:56:30.807Z,19.53
2018-07-02T07:58:59.222Z,19.86
2018-07-02T08:01:27.886Z,19.87
2018-07-02T08:03:56.294Z,19.99
2018-07-02T08:06:24.763Z,19.82
2018-07-02T08:08:53.509Z,19.25
2018-07-02T08:11:21.910Z,19.82
2018-07-02T08:13:50.352Z,20.09
2018-07-02T08:16:18.755Z,20.10
2018-07-02T08:18:47.223Z,20.17
2018-07-02T08:21:15.624Z,20.16
2018-07-02T08:23:44.228Z,20.44
2018-07-02T08:26:12.732Z,20.51
2018-07-02T08:28:41.139Z,20.80
2018-07-02T08:31:09.581Z,20.92
2018-07-02T08:33:38.015Z,20.91
2018-07-02T08:36:06.455Z,20.85
2018-07-02T08:38:34.878Z,21.39
2018-07-02T08:41:03.287Z,20.45
2018-07-02T08:43:31.702Z,20.44
2018-07-02T08:46:00.116Z,21.03
2018-07-02T08:48:28.560Z,21.52
2018-07-02T08:50:57.028Z,21.14
2018-07-02T08:53:26.040Z,21.13
2018-07-02T08:55:54.484Z,21.33
2018-07-02T08:58:22.993Z,21.67
2018-07-02T09:00:51.389Z,21.97
2018-07-02T09:03:19.864Z,21.34
2018-07-02T09:05:48.440Z,22.21
2018-07-02T09:08:16.863Z,21.53
2018-07-02T09:10:45.257Z,22.06
2018-07-02T09:13:13.715Z,22.13
2018-07-02T09:15:42.148Z,22.52
2018-07-02T09:18:10.659Z,22.65
2018-07-02T09:20:39.059Z,22.76
2018-07-02T09:23:07.491Z,22.42
2018-07-02T09:25:35.899Z,22.83
2018-07-02T09:28:04.443Z,22.89
2018-07-02T09:30:32.955Z,23.00
2018-07-02T09:33:01.400Z,23.00
2018-07-02T09:35:29.800Z,23.32
2018-07-02T09:37:58.239Z,23.10
2018-07-02T09:40:26.665Z,23.25
2018-07-02T09:42:55.078Z,23.44
2018-07-02T09:45:23.497Z,23.05
2018-07-02T09:47:51.887Z,23.47
2018-07-02T09:50:20.864Z,23.23
2018-07-02T09:52:49.730Z,23.72
2018-07-02T09:55:18.417Z,23.74
2018-07-02T09:57:47.207Z,23.39
2018-07-02T10:00:15.643Z,24.03
2018-07-02T10:02:44.067Z,23.97
2018-07-02T10:05:12.659Z,24.16
2018-07-02T10:07:41.092Z,24.26
2018-07-02T10:10:09.798Z,24.03
2018-07-02T10:12:38.238Z,23.80
2018-07-02T10:15:07.127Z,24.06
2018-07-02T10:17:35.868Z,24.36
2018-07-02T10:20:04.823Z,24.78
2018-07-02T10:22:33.475Z,24.92
2018-07-02T10:25:02.387Z,24.64
2018-07-02T10:27:30.830Z,24.80
2018-07-02T10:29:59.235Z,24.09
2018-07-02T10:32:27.660Z,24.21
2018-07-02T10:34:56.090Z,24.92
2018-07-02T10:37:24.550Z,23.98
2018-07-02T10:39:53.024Z,24.53
2018-07-02T10:42:21.455Z,25.28
2018-07-02T10:44:49.882Z,25.57
2018-07-02T10:47:18.297Z,25.34
2018-07-02T10:49:46.748Z,25.09
2018-07-02T10:52:15.197Z,25.34
2018-07-02T10:54:43.646Z,25.43
2018-07-02T10:57:12.039Z,25.93
2018-07-02T10:59:40.518Z,24.47
2018-07-02T11:02:08.962Z,26.00
2018-07-02T11:04:37.407Z,25.26
2018-07-02T11:07:05.884Z,25.87
2018-07-02T11:09:34.312Z,25.85
2018-07-02T11:12:02.772Z,26.25
2018-07-02T11:14:31.160Z,26.31
2018-07-02T11:16:59.776Z,26.58
2018-07-02T11:19:28.692Z,26.22
2018-07-02T11:21:57.156Z,26.31
2018-07-02T11:24:25.818Z,26.13
2018-07-02T11:26:54.242Z,26.90
2018-07-02T11:29:22.639Z,26.66
2018-07-02T11:31:51.097Z,27.40
2018-07-02T11:34:20.179Z,27.17
2018-07-02T11:36:48.769Z,26.92
2018-07-02T11:39:17.183Z,26.98
2018-07-02T11:41:45.646Z,26.58
2018-07-02T11:44:14.080Z,27.47
2018-07-02T11:46:42.644Z,26.21
2018-07-02T11:49:11.108Z,29.05
2018-07-02T11:51:39.620Z,28.83
2018-07-02T11:54:08.230Z,28.95
2018-07-02T11:56:36.640Z,28.67
2018-07-02T11:59:05.372Z,29.43
2018-07-02T12:01:33.819Z,29.96
2018-07-02T12:04:02.240Z,29.64
2018-07-02T12:06:30.738Z,29.70
2018-07-02T12:08:59.160Z,29.56
2018-07-02T12:11:27.562Z,30.50
2018-07-02T12:13:56.236Z,29.97
2018-07-02T12:16:24.776Z,30.57
2018-07-02T12:18:53.268Z,28.74
2018-07-02T12:21:21.707Z,31.59
2018-07-02T12:23:50.324Z,30.94
2018-07-02T12:26:18.751Z,31.06
2018-07-02T12:28:47.184Z,29.01
2018-07-02T12:31:15.585Z,30.05
2018-07-02T12:33:43.996Z,31.65
2018-07-02T12:36:12.531Z,32.79
2018-07-02T12:38:40.996Z,31.88
2018-07-02T12:41:09.500Z,31.47
2018-07-02T12:43:38.059Z,30.62
2018-07-02T12:46:06.523Z,32.02
2018-07-02T12:48:35.083Z,32.97
2018-07-02T12:51:03.817Z,32.70
2018-07-02T12:53:32.244Z,32.58
2018-07-02T12:56:00.855Z,33.28
2018-07-02T12:58:29.277Z,32.91
2018-07-02T13:00:57.695Z,32.15
2018-07-02T13:03:26.150Z,33.04
2018-07-02T13:05:54.606Z,31.75
2018-07-02T13:08:23.055Z,34.03
2018-07-02T13:10:51.500Z,30.96
2018-07-02T13:13:19.935Z,32.67
2018-07-02T13:15:48.444Z,32.79
2018-07-02T13:18:16.883Z,31.79
2018-07-02T13:20:45.553Z,31.34
2018-07-02T13:23:14.255Z,30.96
2018-07-02T13:25:42.706Z,32.92
2018-07-02T13:28:11.307Z,31.79
2018-07-02T13:32:09.224Z,32.48
2018-07-02T13:34:37.596Z,33.68
2018-07-02T13:37:06.208Z,32.35
2018-07-02T13:39:34.794Z,32.37
2018-07-02T13:42:03.210Z,33.03
2018-07-02T13:44:31.957Z,33.66
2018-07-02T13:47:00.440Z,34.03
2018-07-02T13:49:29.147Z,33.38
2018-07-02T13:51:57.724Z,32.47
2018-07-02T13:54:26.132Z,32.71
2018-07-02T13:56:54.600Z,32.79
2018-07-02T13:59:23.011Z,32.15
2018-07-02T14:01:51.685Z,32.70
2018-07-02T14:04:20.110Z,33.95
2018-07-02T14:06:48.607Z,33.88
2018-07-02T14:09:17.077Z,32.80
2018-07-02T14:11:45.701Z,31.11
2018-07-02T14:14:14.159Z,32.88
2018-07-02T14:16:42.571Z,32.50
2018-07-02T14:19:10.979Z,34.34
2018-07-02T14:21:39.452Z,35.09
2018-07-02T14:24:07.867Z,34.63
2018-07-02T14:26:36.299Z,34.19
2018-07-02T14:29:04.727Z,34.64
2018-07-02T14:31:33.186Z,34.78
2018-07-02T14:34:01.609Z,34.60
2018-07-02T14:36:30.126Z,33.90
2018-07-02T14:38:58.826Z,33.53
2018-07-02T14:41:27.720Z,31.84
2018-07-02T14:43:56.200Z,31.08
2018-07-02T14:46:24.659Z,31.56
2018-07-02T14:48:53.247Z,33.62
2018-07-02T14:51:21.658Z,34.68
2018-07-02T14:53:50.060Z,33.67
2018-07-02T14:56:18.512Z,34.85
2018-07-02T14:58:47.067Z,33.94
2018-07-02T15:01:15.846Z,35.25
2018-07-02T15:03:44.238Z,35.37
2018-07-02T15:06:12.695Z,35.29
2018-07-02T15:08:41.212Z,34.60
2018-07-02T15:11:09.620Z,34.74
2018-07-02T15:13:38.104Z,35.33
2018-07-02T15:16:06.515Z,33.92
2018-07-02T15:18:35.020Z,35.74
2018-07-02T15:21:03.483Z,35.68
2018-07-02T15:23:31.867Z,35.90
2018-07-02T15:26:00.503Z,36.19
2018-07-02T15:28:29.196Z,35.43
2018-07-02T15:30:57.736Z,34.43
2018-07-02T15:33:26.188Z,36.65
2018-07-02T15:35:54.609Z,35.52
2018-07-02T15:38:23.203Z,35.77
2018-07-02T15:40:51.705Z,33.33
2018-07-02T15:43:20.412Z,33.73
2018-07-02T15:45:48.849Z,33.40
2018-07-02T15:48:17.444Z,34.15
2018-07-02T15:50:45.887Z,33.67
2018-07-02T15:53:14.329Z,34.52
2018-07-02T15:55:43.148Z,34.53
2018-07-02T15:58:11.841Z,35.95
2018-07-02T16:00:40.267Z,34.66
2018-07-02T16:03:08.713Z,36.16
2018-07-02T16:05:37.115Z,36.77
2018-07-02T16:14:50.060Z,35.25
2018-07-02T16:17:18.909Z,35.18
2018-07-02T16:19:47.422Z,36.28
2018-07-02T16:22:15.821Z,37.06
2018-07-02T16:24:44.482Z,36.40
2018-07-02T16:27:12.737Z,36.62
2018-07-02T16:29:41.140Z,37.38
2018-07-02T16:32:09.644Z,34.64
2018-07-02T16:34:38.040Z,36.53
2018-07-02T16:37:06.644Z,36.41
2018-07-02T16:39:35.076Z,37.36
2018-07-02T16:42:03.492Z,36.47
2018-07-02T16:44:32.180Z,35.93
2018-07-02T16:47:00.727Z,37.66
2018-07-02T16:49:29.353Z,38.48
2018-07-02T16:51:57.799Z,37.41
2018-07-02T16:54:26.281Z,37.65
2018-07-02T16:56:55.006Z,37.60
2018-07-02T16:59:23.451Z,37.90
2018-07-02T17:01:51.951Z,38.74
2018-07-02T17:04:20.435Z,37.90
2018-07-02T17:06:48.888Z,38.89
2018-07-02T17:09:17.354Z,36.49
2018-07-02T17:11:45.917Z,36.09
2018-07-02T17:14:14.351Z,37.46
2018-07-02T17:16:43.906Z,37.46
2018-07-02T17:19:12.609Z,38.80
2018-07-02T17:21:41.477Z,38.11
2018-07-02T17:24:10.092Z,36.97
2018-07-02T17:26:38.667Z,38.04
2018-07-02T17:29:07.118Z,38.28
2018-07-02T17:31:35.535Z,39.16
2018-07-02T17:34:03.967Z,37.68
2018-07-02T17:36:32.364Z,37.54
2018-07-02T17:39:00.856Z,37.45
2018-07-02T17:41:29.348Z,36.85
2018-07-02T17:43:57.767Z,36.29
2018-07-02T17:46:26.171Z,36.70
2018-07-02T17:48:54.695Z,35.27
2018-07-02T17:51:23.137Z,35.91
2018-07-02T17:53:51.555Z,36.13
2018-07-02T17:56:19.971Z,33.70
2018-07-02T17:58:48.541Z,32.91
2018-07-02T18:01:16.951Z,33.45
2018-07-02T18:03:45.377Z,32.34
2018-07-02T18:06:13.976Z,32.89
2018-07-02T18:08:42.378Z,32.48
2018-07-02T18:11:10.803Z,32.34
2018-07-02T18:13:39.260Z,30.71
2018-07-02T18:16:07.695Z,32.17
2018-07-02T18:18:36.172Z,29.97
2018-07-02T18:21:04.669Z,30.32
2018-07-02T18:23:33.107Z,28.82
2018-07-02T18:26:01.924Z,29.30
2018-07-02T18:28:30.639Z,28.51
2018-07-02T18:30:59.060Z,28.29
2018-07-02T18:33:27.707Z,28.02
2018-07-02T18:35:56.416Z,27.59
2018-07-02T18:38:24.863Z,26.94
2018-07-02T18:40:53.495Z,26.79
2018-07-02T18:43:22.492Z,26.57
2018-07-02T18:45:51.151Z,26.12
2018-07-02T18:48:19.588Z,25.28
2018-07-02T18:50:47.991Z,24.41
2018-07-02T18:53:16.590Z,24.36
2018-07-02T18:55:45.051Z,23.95
2018-07-02T18:58:13.708Z,23.75
2018-07-02T19:00:42.186Z,23.57
2018-07-02T19:03:10.655Z,23.26
2018-07-02T19:05:39.481Z,23.30
2018-07-02T19:08:07.980Z,23.11
2018-07-02T19:10:36.427Z,22.95
2018-07-02T19:13:04.972Z,22.96
2018-07-02T19:15:33.487Z,22.72
2018-07-02T19:18:01.952Z,22.83
2018-07-02T19:20:30.416Z,22.57
2018-07-02T19:22:59.530Z,22.59
2018-07-02T19:25:27.995Z,22.43
2018-07-02T19:27:56.386Z,22.10
2018-07-02T19:30:24.857Z,22.22
2018-07-02T19:32:53.641Z,22.19
2018-07-02T19:35:22.356Z,22.06
2018-07-02T19:37:50.806Z,21.92
2018-07-02T19:40:19.579Z,21.81
2018-07-02T19:42:47.995Z,21.75
2018-07-02T19:45:16.422Z,21.82
2018-07-02T19:47:45.021Z,21.69
2018-07-02T19:50:13.461Z,21.49
2018-07-02T19:52:42.090Z,21.58
2018-07-02T19:55:10.611Z,21.54
2018-07-02T19:57:39.671Z,21.38
2018-07-02T20:00:08.164Z,21.33
2018-07-02T20:02:36.551Z,21.13
2018-07-02T20:05:05.050Z,21.08
2018-07-02T20:07:33.491Z,21.01
2018-07-02T20:10:02.123Z,21.05
2018-07-02T20:12:30.555Z,20.80
2018-07-02T20:14:58.996Z,20.86
2018-07-02T20:17:27.383Z,20.83
2018-07-02T20:19:56.143Z,20.85
2018-07-02T20:22:24.721Z,20.62
2018-07-02T20:24:53.147Z,20.72
2018-07-02T20:27:21.666Z,20.62
2018-07-02T20:29:50.099Z,20.35
2018-07-02T20:32:18.691Z,20.18
2018-07-02T20:34:47.190Z,20.28
2018-07-02T20:37:16.019Z,20.08
2018-07-02T20:39:44.491Z,20.16
2018-07-02T20:42:12.948Z,20.00
2018-07-02T20:44:41.420Z,19.80
2018-07-02T20:47:09.880Z,19.86
2018-07-02T20:49:38.895Z,19.82
2018-07-02T20:52:07.605Z,19.65
2018-07-02T20:54:36.524Z,19.57
2018-07-02T20:57:05.041Z,19.70
2018-07-02T20:59:33.454Z,19.58
2018-07-02T21:02:01.871Z,19.52
2018-07-02T21:04:30.636Z,19.45
2018-07-02T21:06:59.046Z,19.46
2018-07-02T21:09:27.515Z,19.44
2018-07-02T21:11:55.921Z,19.35
2018-07-02T21:14:24.746Z,19.33
2018-07-02T21:16:53.195Z,19.19
2018-07-02T21:19:21.811Z,19.21
2018-07-02T21:21:50.261Z,19.28
2018-07-02T21:24:18.744Z,19.41
2018-07-02T21:26:47.503Z,19.29
2018-07-02T21:29:15.947Z,19.16
2018-07-02T21:31:44.363Z,19.12
2018-07-02T21:34:12.860Z,19.12
2018-07-02T21:36:41.441Z,19.08
2018-07-02T21:39:12.484Z,18.95
2018-07-02T21:41:41.531Z,18.84
2018-07-02T21:44:09.967Z,18.74
2018-07-02T21:46:38.447Z,18.70
2018-07-02T21:49:06.832Z,18.55
2018-07-02T21:51:35.325Z,18.50
2018-07-02T21:54:03.756Z,18.43
2018-07-02T21:56:32.866Z,18.36
2018-07-02T21:59:01.291Z,18.36
2018-07-02T22:01:29.890Z,18.26
2018-07-02T22:03:58.595Z,18.19
2018-07-02T22:06:26.994Z,18.14
2018-07-02T22:08:55.663Z,18.23
2018-07-02T22:11:24.096Z,18.10
2018-07-02T22:13:52.560Z,18.12
2018-07-02T22:16:21.192Z,18.05
2018-07-02T22:18:49.643Z,18.10
2018-07-02T22:21:18.307Z,18.03
2018-07-02T22:23:46.751Z,18.03
2018-07-02T22:26:15.156Z,17.90
2018-07-02T22:28:43.610Z,17.83
2018-07-02T22:31:12.341Z,17.77
2018-07-02T22:33:40.776Z,17.57
2018-07-02T22:36:09.206Z,17.73
2018-07-02T22:38:37.627Z,17.68
2018-07-02T22:41:06.310Z,17.59
2018-07-02T22:43:34.774Z,17.66
2018-07-02T22:46:03.240Z,17.80
2018-07-02T22:48:31.720Z,17.69
2018-07-02T22:51:00.295Z,17.59
2018-07-02T22:53:28.751Z,17.66
2018-07-02T22:56:03.290Z,17.48
2018-07-02T22:58:31.736Z,17.24
2018-07-02T23:01:01.127Z,17.27
2018-07-02T23:03:29.535Z,17.20
2018-07-02T23:05:58.225Z,17.03
2018-07-02T23:08:27.527Z,16.92
2018-07-02T23:10:56.619Z,16.84
2018-07-02T23:13:25.764Z,16.71
2018-07-02T23:15:58.323Z,16.81
2018-07-02T23:18:28.435Z,16.73
2018-07-02T23:20:56.903Z,16.70
2018-07-02T23:23:25.306Z,16.57
2018-07-02T23:25:53.716Z,16.61
2018-07-02T23:28:22.149Z,16.59
2018-07-02T23:30:50.653Z,16.41
2018-07-02T23:33:19.070Z,16.55
2018-07-02T23:35:47.718Z,16.46
2018-07-02T23:38:16.163Z,16.32
2018-07-02T23:40:44.602Z,16.30
2018-07-02T23:43:13.059Z,16.37
2018-07-02T23:45:41.471Z,16.22
2018-07-02T23:48:09.989Z,16.12
2018-07-02T23:50:38.451Z,16.04
2018-07-02T23:53:07.040Z,15.82
2018-07-02T23:55:35.748Z,15.81
2018-07-02T23:58:04.173Z,15.72
